sensor_id;sensor_type;location;lat;lon;timestamp;P1;durP1;ratioP1;P2;durP2;ratioP2
21183;SDS011;18176;49.502;11.754;2023-05-10T00:01:53;6.47;;;4.17;;
21183;SDS011;18176;49.502;11.754;2023-05-10T00:05:54;6.93;;;3.97;;
21183;SDS011;18176;49.502;11.754;2023-05-10T00:09:54;7.13;;;4.20;;
21183;SDS011;18176;49.502;11.754;2023-05-10T00:13:57;7.40;;;4.00;;
21183;SDS011;18176;49.502;11.754;2023-05-10T00:17:57;5.97;;;4.33;;
21183;SDS011;18176;49.502;11.754;2023-05-10T00:21:58;6.33;;;4.30;;
21183;SDS011;18176;49.502;11.754;2023-05-10T00:25:59;5.67;;;3.87;;
21183;SDS011;18176;49.502;11.754;2023-05-10T00:30:02;8.03;;;4.53;;
21183;SDS011;18176;49.502;11.754;2023-05-10T00:34:04;5.80;;;4.23;;
21183;SDS011;18176;49.502;11.754;2023-05-10T00:38:04;4.83;;;4.13;;
21183;SDS011;18176;49.502;11.754;2023-05-10T00:42:05;5.23;;;4.00;;
21183;SDS011;18176;49.502;11.754;2023-05-10T00:46:09;9.47;;;4.53;;
21183;SDS011;18176;49.502;11.754;2023-05-10T00:50:09;4.80;;;4.10;;
21183;SDS011;18176;49.502;11.754;2023-05-10T00:54:11;5.17;;;4.27;;
21183;SDS011;18176;49.502;11.754;2023-05-10T00:58:13;7.97;;;4.43;;
21183;SDS011;18176;49.502;11.754;2023-05-10T01:02:17;7.60;;;4.50;;
21183;SDS011;18176;49.502;11.754;2023-05-10T01:06:17;7.03;;;4.23;;
21183;SDS011;18176;49.502;11.754;2023-05-10T01:10:17;4.40;;;3.90;;
21183;SDS011;18176;49.502;11.754;2023-05-10T01:14:18;8.20;;;4.07;;
21183;SDS011;18176;49.502;11.754;2023-05-10T01:18:22;7.37;;;4.17;;
21183;SDS011;18176;49.502;11.754;2023-05-10T01:22:35;5.67;;;3.90;;
21183;SDS011;18176;49.502;11.754;2023-05-10T01:27:14;6.00;;;4.10;;
21183;SDS011;18176;49.502;11.754;2023-05-10T01:36:22;5.87;;;4.70;;
21183;SDS011;18176;49.502;11.754;2023-05-10T01:40:31;7.83;;;4.90;;
21183;SDS011;18176;49.502;11.754;2023-05-10T01:44:41;7.47;;;4.70;;
21183;SDS011;18176;49.502;11.754;2023-05-10T01:48:55;9.10;;;4.80;;
21183;SDS011;18176;49.502;11.754;2023-05-10T01:53:00;6.23;;;4.80;;
21183;SDS011;18176;49.502;11.754;2023-05-10T01:57:06;7.07;;;5.23;;
21183;SDS011;18176;49.502;11.754;2023-05-10T02:01:10;9.20;;;4.90;;
21183;SDS011;18176;49.502;11.754;2023-05-10T02:05:16;6.80;;;4.77;;
21183;SDS011;18176;49.502;11.754;2023-05-10T02:09:19;8.23;;;5.53;;
21183;SDS011;18176;49.502;11.754;2023-05-10T02:13:23;8.10;;;4.90;;
21183;SDS011;18176;49.502;11.754;2023-05-10T02:17:26;8.03;;;4.73;;
21183;SDS011;18176;49.502;11.754;2023-05-10T02:21:32;7.73;;;5.17;;
21183;SDS011;18176;49.502;11.754;2023-05-10T02:25:35;11.80;;;5.97;;
21183;SDS011;18176;49.502;11.754;2023-05-10T02:29:36;12.97;;;6.20;;
21183;SDS011;18176;49.502;11.754;2023-05-10T02:33:38;9.20;;;6.20;;
21183;SDS011;18176;49.502;11.754;2023-05-10T02:37:44;8.70;;;5.83;;
21183;SDS011;18176;49.502;11.754;2023-05-10T02:41:46;12.70;;;6.20;;
21183;SDS011;18176;49.502;11.754;2023-05-10T02:45:49;9.17;;;6.17;;
21183;SDS011;18176;49.502;11.754;2023-05-10T02:49:49;6.93;;;5.10;;
21183;SDS011;18176;49.502;11.754;2023-05-10T02:53:53;12.73;;;5.70;;
21183;SDS011;18176;49.502;11.754;2023-05-10T02:57:57;7.80;;;5.77;;
21183;SDS011;18176;49.502;11.754;2023-05-10T03:02:00;9.00;;;6.40;;
21183;SDS011;18176;49.502;11.754;2023-05-10T03:06:01;9.60;;;6.33;;
21183;SDS011;18176;49.502;11.754;2023-05-10T03:10:05;9.47;;;6.17;;
21183;SDS011;18176;49.502;11.754;2023-05-10T03:14:10;10.07;;;6.10;;
21183;SDS011;18176;49.502;11.754;2023-05-10T03:18:27;15.23;;;7.00;;
21183;SDS011;18176;49.502;11.754;2023-05-10T03:22:37;10.70;;;7.27;;
21183;SDS011;18176;49.502;11.754;2023-05-10T03:26:56;10.47;;;7.30;;
21183;SDS011;18176;49.502;11.754;2023-05-10T03:31:01;12.20;;;7.57;;
21183;SDS011;18176;49.502;11.754;2023-05-10T03:35:06;10.83;;;7.47;;
21183;SDS011;18176;49.502;11.754;2023-05-10T03:39:07;13.23;;;7.57;;
21183;SDS011;18176;49.502;11.754;2023-05-10T03:43:10;10.27;;;7.63;;
21183;SDS011;18176;49.502;11.754;2023-05-10T03:47:11;8.67;;;7.10;;
21183;SDS011;18176;49.502;11.754;2023-05-10T03:51:11;9.47;;;7.00;;
21183;SDS011;18176;49.502;11.754;2023-05-10T03:55:12;11.13;;;7.20;;
21183;SDS011;18176;49.502;11.754;2023-05-10T03:59:15;9.40;;;6.80;;
21183;SDS011;18176;49.502;11.754;2023-05-10T04:03:16;9.17;;;6.63;;
21183;SDS011;18176;49.502;11.754;2023-05-10T04:07:16;10.83;;;7.23;;
21183;SDS011;18176;49.502;11.754;2023-05-10T04:11:17;12.00;;;7.23;;
21183;SDS011;18176;49.502;11.754;2023-05-10T04:15:21;10.30;;;6.27;;
21183;SDS011;18176;49.502;11.754;2023-05-10T04:19:21;8.00;;;6.87;;
21183;SDS011;18176;49.502;11.754;2023-05-10T04:23:22;9.77;;;7.37;;
21183;SDS011;18176;49.502;11.754;2023-05-10T04:27:22;10.70;;;7.27;;
21183;SDS011;18176;49.502;11.754;2023-05-10T04:31:25;9.73;;;7.20;;
21183;SDS011;18176;49.502;11.754;2023-05-10T04:35:26;11.50;;;7.77;;
21183;SDS011;18176;49.502;11.754;2023-05-10T04:39:26;15.10;;;9.00;;
21183;SDS011;18176;49.502;11.754;2023-05-10T04:43:26;12.70;;;9.00;;
21183;SDS011;18176;49.502;11.754;2023-05-10T04:47:29;12.77;;;8.80;;
21183;SDS011;18176;49.502;11.754;2023-05-10T04:51:29;11.30;;;9.10;;
21183;SDS011;18176;49.502;11.754;2023-05-10T04:55:30;11.83;;;9.10;;
21183;SDS011;18176;49.502;11.754;2023-05-10T04:59:31;13.03;;;8.83;;
21183;SDS011;18176;49.502;11.754;2023-05-10T05:03:34;12.53;;;9.27;;
21183;SDS011;18176;49.502;11.754;2023-05-10T05:07:34;14.07;;;9.37;;
21183;SDS011;18176;49.502;11.754;2023-05-10T05:11:34;11.57;;;8.57;;
21183;SDS011;18176;49.502;11.754;2023-05-10T05:15:36;12.10;;;8.43;;
21183;SDS011;18176;49.502;11.754;2023-05-10T05:19:39;11.73;;;8.17;;
21183;SDS011;18176;49.502;11.754;2023-05-10T05:23:39;11.37;;;9.03;;
21183;SDS011;18176;49.502;11.754;2023-05-10T05:27:39;9.07;;;7.47;;
21183;SDS011;18176;49.502;11.754;2023-05-10T05:31:40;11.40;;;8.23;;
21183;SDS011;18176;49.502;11.754;2023-05-10T05:35:42;13.50;;;8.53;;
21183;SDS011;18176;49.502;11.754;2023-05-10T05:39:47;15.87;;;9.70;;
21183;SDS011;18176;49.502;11.754;2023-05-10T05:43:48;12.03;;;9.33;;
21183;SDS011;18176;49.502;11.754;2023-05-10T05:47:48;14.43;;;9.30;;
21183;SDS011;18176;49.502;11.754;2023-05-10T05:51:51;9.87;;;8.57;;
21183;SDS011;18176;49.502;11.754;2023-05-10T05:55:51;9.33;;;8.27;;
21183;SDS011;18176;49.502;11.754;2023-05-10T05:59:53;17.30;;;11.20;;
21183;SDS011;18176;49.502;11.754;2023-05-10T06:03:53;14.23;;;10.53;;
21183;SDS011;18176;49.502;11.754;2023-05-10T06:07:56;15.70;;;10.80;;
21183;SDS011;18176;49.502;11.754;2023-05-10T06:11:59;14.47;;;10.03;;
21183;SDS011;18176;49.502;11.754;2023-05-10T06:15:59;14.53;;;9.50;;
21183;SDS011;18176;49.502;11.754;2023-05-10T06:20:00;12.20;;;10.67;;
21183;SDS011;18176;49.502;11.754;2023-05-10T06:24:03;12.60;;;9.10;;
21183;SDS011;18176;49.502;11.754;2023-05-10T06:28:05;13.30;;;9.10;;
21183;SDS011;18176;49.502;11.754;2023-05-10T06:32:05;13.43;;;9.43;;
21183;SDS011;18176;49.502;11.754;2023-05-10T06:36:05;10.97;;;8.37;;
21183;SDS011;18176;49.502;11.754;2023-05-10T06:40:09;10.53;;;8.43;;
21183;SDS011;18176;49.502;11.754;2023-05-10T06:44:11;9.83;;;8.67;;
21183;SDS011;18176;49.502;11.754;2023-05-10T06:48:12;10.80;;;8.70;;
21183;SDS011;18176;49.502;11.754;2023-05-10T06:52:12;9.90;;;7.47;;
21183;SDS011;18176;49.502;11.754;2023-05-10T06:56:15;10.07;;;7.37;;
21183;SDS011;18176;49.502;11.754;2023-05-10T07:00:18;10.13;;;7.40;;
21183;SDS011;18176;49.502;11.754;2023-05-10T07:04:19;11.93;;;7.27;;
21183;SDS011;18176;49.502;11.754;2023-05-10T07:08:19;10.33;;;6.97;;
21183;SDS011;18176;49.502;11.754;2023-05-10T07:12:22;8.85;;;6.50;;
21183;SDS011;18176;49.502;11.754;2023-05-10T07:16:22;8.10;;;6.45;;
21183;SDS011;18176;49.502;11.754;2023-05-10T07:20:22;7.55;;;6.50;;
21183;SDS011;18176;49.502;11.754;2023-05-10T07:24:23;8.30;;;5.93;;
21183;SDS011;18176;49.502;11.754;2023-05-10T07:28:26;8.13;;;5.57;;
21183;SDS011;18176;49.502;11.754;2023-05-10T07:32:26;7.60;;;5.65;;
21183;SDS011;18176;49.502;11.754;2023-05-10T07:36:27;6.60;;;6.00;;
21183;SDS011;18176;49.502;11.754;2023-05-10T07:40:27;6.28;;;5.50;;
21183;SDS011;18176;49.502;11.754;2023-05-10T07:44:31;5.82;;;5.22;;
21183;SDS011;18176;49.502;11.754;2023-05-10T07:48:31;8.32;;;6.10;;
21183;SDS011;18176;49.502;11.754;2023-05-10T07:52:31;7.40;;;5.20;;
21183;SDS011;18176;49.502;11.754;2023-05-10T07:56:32;5.53;;;4.93;;
21183;SDS011;18176;49.502;11.754;2023-05-10T08:00:35;8.82;;;5.80;;
21183;SDS011;18176;49.502;11.754;2023-05-10T08:04:36;7.75;;;6.15;;
21183;SDS011;18176;49.502;11.754;2023-05-10T08:08:36;6.32;;;4.68;;
21183;SDS011;18176;49.502;11.754;2023-05-10T08:12:37;1.50;;;1.10;;
21183;SDS011;18176;49.502;11.754;2023-05-10T08:16:40;1.10;;;1.00;;
21183;SDS011;18176;49.502;11.754;2023-05-10T08:20:40;3.33;;;1.00;;
21183;SDS011;18176;49.502;11.754;2023-05-10T08:24:40;0.90;;;0.90;;
21183;SDS011;18176;49.502;11.754;2023-05-10T08:28:42;1.55;;;1.40;;
21183;SDS011;18176;49.502;11.754;2023-05-10T08:32:45;1.80;;;1.25;;
21183;SDS011;18176;49.502;11.754;2023-05-10T08:36:45;1.10;;;1.00;;
21183;SDS011;18176;49.502;11.754;2023-05-10T08:40:47;0.80;;;0.68;;
21183;SDS011;18176;49.502;11.754;2023-05-10T08:44:53;1.52;;;0.80;;
21183;SDS011;18176;49.502;11.754;2023-05-10T08:48:58;1.45;;;0.88;;
21183;SDS011;18176;49.502;11.754;2023-05-10T08:53:04;1.02;;;0.90;;
21183;SDS011;18176;49.502;11.754;2023-05-10T08:57:10;0.80;;;0.80;;
21183;SDS011;18176;49.502;11.754;2023-05-10T09:01:10;2.22;;;1.02;;
21183;SDS011;18176;49.502;11.754;2023-05-10T09:05:15;0.80;;;0.80;;
21183;SDS011;18176;49.502;11.754;2023-05-10T09:09:16;0.85;;;0.85;;
21183;SDS011;18176;49.502;11.754;2023-05-10T09:13:17;1.23;;;0.90;;
21183;SDS011;18176;49.502;11.754;2023-05-10T09:17:20;1.83;;;0.90;;
21183;SDS011;18176;49.502;11.754;2023-05-10T09:21:26;2.05;;;1.00;;
21183;SDS011;18176;49.502;11.754;2023-05-10T09:25:27;0.98;;;0.80;;
21183;SDS011;18176;49.502;11.754;2023-05-10T09:29:38;2.63;;;1.30;;
21183;SDS011;18176;49.502;11.754;2023-05-10T09:33:43;1.05;;;1.00;;
21183;SDS011;18176;49.502;11.754;2023-05-10T09:37:47;2.30;;;1.00;;
21183;SDS011;18176;49.502;11.754;2023-05-10T09:41:50;0.90;;;0.90;;
21183;SDS011;18176;49.502;11.754;2023-05-10T09:45:50;1.40;;;0.90;;
21183;SDS011;18176;49.502;11.754;2023-05-10T09:49:52;1.88;;;0.80;;
21183;SDS011;18176;49.502;11.754;2023-05-10T09:58:14;1.27;;;0.90;;
21183;SDS011;18176;49.502;11.754;2023-05-10T10:02:15;0.77;;;0.75;;
21183;SDS011;18176;49.502;11.754;2023-05-10T10:06:18;1.83;;;0.80;;
21183;SDS011;18176;49.502;11.754;2023-05-10T10:10:28;0.88;;;0.80;;
21183;SDS011;18176;49.502;11.754;2023-05-10T10:14:31;1.58;;;0.80;;
21183;SDS011;18176;49.502;11.754;2023-05-10T10:18:31;1.85;;;0.70;;
21183;SDS011;18176;49.502;11.754;2023-05-10T10:22:36;0.80;;;0.80;;
21183;SDS011;18176;49.502;11.754;2023-05-10T10:26:39;2.05;;;0.77;;
21183;SDS011;18176;49.502;11.754;2023-05-10T10:30:42;0.88;;;0.88;;
21183;SDS011;18176;49.502;11.754;2023-05-10T10:34:46;0.82;;;0.82;;
21183;SDS011;18176;49.502;11.754;2023-05-10T10:38:57;0.70;;;0.68;;
21183;SDS011;18176;49.502;11.754;2023-05-10T10:43:21;0.80;;;0.70;;
21183;SDS011;18176;49.502;11.754;2023-05-10T10:47:23;2.58;;;0.90;;
21183;SDS011;18176;49.502;11.754;2023-05-10T10:51:29;1.35;;;0.70;;
21183;SDS011;18176;49.502;11.754;2023-05-10T10:55:35;0.77;;;0.70;;
21183;SDS011;18176;49.502;11.754;2023-05-10T10:59:49;1.15;;;0.70;;
21183;SDS011;18176;49.502;11.754;2023-05-10T11:08:19;1.80;;;1.13;;
21183;SDS011;18176;49.502;11.754;2023-05-10T11:12:25;3.72;;;1.70;;
21183;SDS011;18176;49.502;11.754;2023-05-10T11:16:28;2.00;;;1.35;;
21183;SDS011;18176;49.502;11.754;2023-05-10T11:20:41;1.92;;;1.23;;
21183;SDS011;18176;49.502;11.754;2023-05-10T11:24:55;1.08;;;0.98;;
21183;SDS011;18176;49.502;11.754;2023-05-10T11:28:57;1.58;;;1.02;;
21183;SDS011;18176;49.502;11.754;2023-05-10T11:33:03;1.80;;;1.05;;
21183;SDS011;18176;49.502;11.754;2023-05-10T11:37:04;1.55;;;1.00;;
21183;SDS011;18176;49.502;11.754;2023-05-10T11:41:04;1.95;;;1.13;;
21183;SDS011;18176;49.502;11.754;2023-05-10T11:45:08;2.92;;;1.00;;
21183;SDS011;18176;49.502;11.754;2023-05-10T11:49:12;2.72;;;1.40;;
21183;SDS011;18176;49.502;11.754;2023-05-10T11:53:12;1.35;;;0.90;;
21183;SDS011;18176;49.502;11.754;2023-05-10T11:57:13;1.08;;;1.00;;
21183;SDS011;18176;49.502;11.754;2023-05-10T12:01:13;1.30;;;1.20;;
21183;SDS011;18176;49.502;11.754;2023-05-10T12:05:16;3.15;;;1.13;;
21183;SDS011;18176;49.502;11.754;2023-05-10T12:09:17;1.40;;;1.00;;
21183;SDS011;18176;49.502;11.754;2023-05-10T12:13:31;2.25;;;0.90;;
21183;SDS011;18176;49.502;11.754;2023-05-10T12:17:31;1.08;;;1.00;;
21183;SDS011;18176;49.502;11.754;2023-05-10T12:21:35;1.23;;;1.00;;
21183;SDS011;18176;49.502;11.754;2023-05-10T12:25:38;1.60;;;1.00;;
21183;SDS011;18176;49.502;11.754;2023-05-10T12:29:41;3.33;;;1.40;;
21183;SDS011;18176;49.502;11.754;2023-05-10T12:33:43;1.48;;;1.30;;
21183;SDS011;18176;49.502;11.754;2023-05-10T12:37:50;1.70;;;1.10;;
21183;SDS011;18176;49.502;11.754;2023-05-10T12:41:51;1.95;;;1.10;;
21183;SDS011;18176;49.502;11.754;2023-05-10T12:45:51;2.40;;;1.00;;
21183;SDS011;18176;49.502;11.754;2023-05-10T12:49:52;1.45;;;1.20;;
21183;SDS011;18176;49.502;11.754;2023-05-10T12:53:55;1.42;;;1.10;;
21183;SDS011;18176;49.502;11.754;2023-05-10T12:57:55;2.28;;;0.90;;
21183;SDS011;18176;49.502;11.754;2023-05-10T13:01:56;1.40;;;1.08;;
21183;SDS011;18176;49.502;11.754;2023-05-10T13:05:57;3.33;;;1.20;;
21183;SDS011;18176;49.502;11.754;2023-05-10T13:10:00;0.88;;;0.88;;
21183;SDS011;18176;49.502;11.754;2023-05-10T13:14:00;2.65;;;1.40;;
21183;SDS011;18176;49.502;11.754;2023-05-10T13:18:02;3.15;;;1.67;;
21183;SDS011;18176;49.502;11.754;2023-05-10T13:22:03;3.90;;;1.35;;
21183;SDS011;18176;49.502;11.754;2023-05-10T13:26:06;2.22;;;1.70;;
21183;SDS011;18176;49.502;11.754;2023-05-10T13:30:07;3.78;;;2.20;;
21183;SDS011;18176;49.502;11.754;2023-05-10T13:34:09;2.67;;;1.30;;
21183;SDS011;18176;49.502;11.754;2023-05-10T13:38:09;7.30;;;1.73;;
21183;SDS011;18176;49.502;11.754;2023-05-10T13:42:12;3.22;;;1.42;;
21183;SDS011;18176;49.502;11.754;2023-05-10T13:46:13;2.75;;;1.65;;
21183;SDS011;18176;49.502;11.754;2023-05-10T13:50:14;3.40;;;2.08;;
21183;SDS011;18176;49.502;11.754;2023-05-10T13:54:15;4.53;;;3.38;;
21183;SDS011;18176;49.502;11.754;2023-05-10T13:58:20;4.55;;;2.92;;
21183;SDS011;18176;49.502;11.754;2023-05-10T14:02:20;8.13;;;3.15;;
21183;SDS011;18176;49.502;11.754;2023-05-10T14:06:22;6.40;;;2.92;;
21183;SDS011;18176;49.502;11.754;2023-05-10T14:10:23;3.60;;;2.63;;
21183;SDS011;18176;49.502;11.754;2023-05-10T14:14:26;3.20;;;2.30;;
21183;SDS011;18176;49.502;11.754;2023-05-10T14:18:26;1.60;;;1.50;;
21183;SDS011;18176;49.502;11.754;2023-05-10T14:22:27;1.65;;;1.30;;
21183;SDS011;18176;49.502;11.754;2023-05-10T14:26:27;4.40;;;1.50;;
21183;SDS011;18176;49.502;11.754;2023-05-10T14:30:31;3.13;;;1.15;;
21183;SDS011;18176;49.502;11.754;2023-05-10T14:34:31;2.67;;;1.20;;
21183;SDS011;18176;49.502;11.754;2023-05-10T14:38:32;2.70;;;1.08;;
21183;SDS011;18176;49.502;11.754;2023-05-10T14:42:32;1.80;;;1.20;;
21183;SDS011;18176;49.502;11.754;2023-05-10T14:46:35;2.42;;;1.17;;
21183;SDS011;18176;49.502;11.754;2023-05-10T14:50:36;2.15;;;1.23;;
21183;SDS011;18176;49.502;11.754;2023-05-10T14:54:39;1.38;;;1.27;;
21183;SDS011;18176;49.502;11.754;2023-05-10T14:58:39;1.65;;;1.02;;
21183;SDS011;18176;49.502;11.754;2023-05-10T15:02:42;1.42;;;1.10;;
21183;SDS011;18176;49.502;11.754;2023-05-10T15:06:43;3.80;;;1.70;;
21183;SDS011;18176;49.502;11.754;2023-05-10T15:10:43;2.38;;;1.40;;
21183;SDS011;18176;49.502;11.754;2023-05-10T15:14:44;2.30;;;1.15;;
21183;SDS011;18176;49.502;11.754;2023-05-10T15:18:47;2.00;;;1.40;;
21183;SDS011;18176;49.502;11.754;2023-05-10T15:22:47;5.32;;;1.90;;
21183;SDS011;18176;49.502;11.754;2023-05-10T15:26:47;1.67;;;1.40;;
21183;SDS011;18176;49.502;11.754;2023-05-10T15:30:48;2.03;;;1.50;;
21183;SDS011;18176;49.502;11.754;2023-05-10T15:34:51;3.55;;;2.00;;
21183;SDS011;18176;49.502;11.754;2023-05-10T15:38:52;4.55;;;2.38;;
21183;SDS011;18176;49.502;11.754;2023-05-10T15:42:53;4.10;;;2.90;;
21183;SDS011;18176;49.502;11.754;2023-05-10T15:46:54;3.55;;;1.90;;
21183;SDS011;18176;49.502;11.754;2023-05-10T15:50:57;3.50;;;1.65;;
21183;SDS011;18176;49.502;11.754;2023-05-10T15:54:58;2.33;;;1.55;;
21183;SDS011;18176;49.502;11.754;2023-05-10T15:59:08;5.45;;;3.13;;
21183;SDS011;18176;49.502;11.754;2023-05-10T16:03:09;2.50;;;2.30;;
21183;SDS011;18176;49.502;11.754;2023-05-10T16:07:12;5.47;;;2.80;;
21183;SDS011;18176;49.502;11.754;2023-05-10T16:11:12;5.30;;;2.40;;
21183;SDS011;18176;49.502;11.754;2023-05-10T16:15:13;4.55;;;2.45;;
21183;SDS011;18176;49.502;11.754;2023-05-10T16:19:14;2.17;;;1.98;;
21183;SDS011;18176;49.502;11.754;2023-05-10T16:23:17;6.22;;;2.20;;
21183;SDS011;18176;49.502;11.754;2023-05-10T16:27:18;1.95;;;1.42;;
21183;SDS011;18176;49.502;11.754;2023-05-10T16:31:18;4.13;;;2.13;;
21183;SDS011;18176;49.502;11.754;2023-05-10T16:35:19;2.17;;;1.33;;
21183;SDS011;18176;49.502;11.754;2023-05-10T16:39:22;2.57;;;1.50;;
21183;SDS011;18176;49.502;11.754;2023-05-10T16:43:22;1.27;;;1.13;;
21183;SDS011;18176;49.502;11.754;2023-05-10T16:47:22;2.57;;;1.30;;
21183;SDS011;18176;49.502;11.754;2023-05-10T16:51:23;4.47;;;1.60;;
21183;SDS011;18176;49.502;11.754;2023-05-10T16:55:26;1.27;;;1.17;;
21183;SDS011;18176;49.502;11.754;2023-05-10T16:59:26;4.03;;;1.60;;
21183;SDS011;18176;49.502;11.754;2023-05-10T17:03:27;4.93;;;4.10;;
21183;SDS011;18176;49.502;11.754;2023-05-10T17:07:27;4.73;;;4.00;;
21183;SDS011;18176;49.502;11.754;2023-05-10T17:11:30;4.60;;;3.30;;
21183;SDS011;18176;49.502;11.754;2023-05-10T17:15:31;3.80;;;2.97;;
21183;SDS011;18176;49.502;11.754;2023-05-10T17:19:31;4.07;;;3.10;;
21183;SDS011;18176;49.502;11.754;2023-05-10T17:23:31;9.10;;;3.37;;
21183;SDS011;18176;49.502;11.754;2023-05-10T17:27:34;4.53;;;3.17;;
21183;SDS011;18176;49.502;11.754;2023-05-10T17:31:35;11.27;;;3.97;;
21183;SDS011;18176;49.502;11.754;2023-05-10T17:35:35;6.03;;;4.50;;
21183;SDS011;18176;49.502;11.754;2023-05-10T17:39:35;5.43;;;4.10;;
21183;SDS011;18176;49.502;11.754;2023-05-10T17:43:38;4.03;;;3.50;;
21183;SDS011;18176;49.502;11.754;2023-05-10T17:47:40;6.40;;;4.57;;
21183;SDS011;18176;49.502;11.754;2023-05-10T17:51:40;5.60;;;4.03;;
21183;SDS011;18176;49.502;11.754;2023-05-10T17:55:43;6.27;;;4.40;;
21183;SDS011;18176;49.502;11.754;2023-05-10T17:59:46;3.83;;;2.93;;
21183;SDS011;18176;49.502;11.754;2023-05-10T18:03:47;4.53;;;2.80;;
21183;SDS011;18176;49.502;11.754;2023-05-10T18:07:48;3.83;;;2.67;;
21183;SDS011;18176;49.502;11.754;2023-05-10T18:11:48;4.00;;;2.80;;
21183;SDS011;18176;49.502;11.754;2023-05-10T18:15:52;3.83;;;2.23;;
21183;SDS011;18176;49.502;11.754;2023-05-10T18:19:52;4.00;;;2.90;;
21183;SDS011;18176;49.502;11.754;2023-05-10T18:23:52;7.13;;;2.80;;
21183;SDS011;18176;49.502;11.754;2023-05-10T18:27:53;4.83;;;2.93;;
21183;SDS011;18176;49.502;11.754;2023-05-10T18:31:56;3.43;;;2.80;;
21183;SDS011;18176;49.502;11.754;2023-05-10T18:35:56;3.73;;;2.13;;
21183;SDS011;18176;49.502;11.754;2023-05-10T18:39:58;4.70;;;2.70;;
21183;SDS011;18176;49.502;11.754;2023-05-10T18:44:00;4.13;;;2.80;;
21183;SDS011;18176;49.502;11.754;2023-05-10T18:48:03;3.00;;;2.70;;
21183;SDS011;18176;49.502;11.754;2023-05-10T18:52:04;3.43;;;2.70;;
21183;SDS011;18176;49.502;11.754;2023-05-10T18:56:05;4.93;;;3.50;;
21183;SDS011;18176;49.502;11.754;2023-05-10T19:00:06;4.53;;;3.03;;
21183;SDS011;18176;49.502;11.754;2023-05-10T19:04:11;4.00;;;3.40;;
21183;SDS011;18176;49.502;11.754;2023-05-10T19:08:11;4.97;;;3.00;;
21183;SDS011;18176;49.502;11.754;2023-05-10T19:12:12;5.17;;;3.23;;
21183;SDS011;18176;49.502;11.754;2023-05-10T19:16:13;3.67;;;3.10;;
21183;SDS011;18176;49.502;11.754;2023-05-10T19:20:18;3.47;;;3.00;;
21183;SDS011;18176;49.502;11.754;2023-05-10T19:24:19;4.30;;;3.17;;
21183;SDS011;18176;49.502;11.754;2023-05-10T19:28:21;4.17;;;3.53;;
21183;SDS011;18176;49.502;11.754;2023-05-10T19:32:22;7.90;;;3.83;;
21183;SDS011;18176;49.502;11.754;2023-05-10T19:36:25;9.77;;;4.73;;
21183;SDS011;18176;49.502;11.754;2023-05-10T19:40:25;6.10;;;3.60;;
21183;SDS011;18176;49.502;11.754;2023-05-10T19:44:25;4.60;;;3.80;;
21183;SDS011;18176;49.502;11.754;2023-05-10T19:48:26;4.87;;;3.37;;
21183;SDS011;18176;49.502;11.754;2023-05-10T19:52:29;5.77;;;3.23;;
21183;SDS011;18176;49.502;11.754;2023-05-10T19:56:30;5.70;;;3.00;;
21183;SDS011;18176;49.502;11.754;2023-05-10T20:00:31;3.10;;;2.80;;
21183;SDS011;18176;49.502;11.754;2023-05-10T20:04:31;4.40;;;2.83;;
21183;SDS011;18176;49.502;11.754;2023-05-10T20:08:34;3.03;;;2.63;;
21183;SDS011;18176;49.502;11.754;2023-05-10T20:12:35;3.93;;;3.17;;
21183;SDS011;18176;49.502;11.754;2023-05-10T20:16:35;3.80;;;2.90;;
21183;SDS011;18176;49.502;11.754;2023-05-10T20:20:35;5.47;;;3.70;;
21183;SDS011;18176;49.502;11.754;2023-05-10T20:24:38;5.57;;;4.50;;
21183;SDS011;18176;49.502;11.754;2023-05-10T20:28:40;11.87;;;5.87;;
21183;SDS011;18176;49.502;11.754;2023-05-10T20:32:42;5.23;;;4.17;;
21183;SDS011;18176;49.502;11.754;2023-05-10T20:36:43;6.20;;;3.70;;
21183;SDS011;18176;49.502;11.754;2023-05-10T20:40:46;5.30;;;3.47;;
21183;SDS011;18176;49.502;11.754;2023-05-10T20:44:46;3.80;;;3.50;;
21183;SDS011;18176;49.502;11.754;2023-05-10T20:48:47;3.93;;;3.30;;
21183;SDS011;18176;49.502;11.754;2023-05-10T20:52:47;3.53;;;3.23;;
21183;SDS011;18176;49.502;11.754;2023-05-10T20:56:51;4.20;;;3.33;;
21183;SDS011;18176;49.502;11.754;2023-05-10T21:00:51;4.13;;;3.20;;
21183;SDS011;18176;49.502;11.754;2023-05-10T21:04:52;4.30;;;2.93;;
21183;SDS011;18176;49.502;11.754;2023-05-10T21:08:53;5.90;;;3.47;;
21183;SDS011;18176;49.502;11.754;2023-05-10T21:12:56;5.13;;;3.20;;
21183;SDS011;18176;49.502;11.754;2023-05-10T21:16:56;6.83;;;3.80;;
21183;SDS011;18176;49.502;11.754;2023-05-10T21:20:57;4.00;;;3.60;;
21183;SDS011;18176;49.502;11.754;2023-05-10T21:24:57;4.17;;;3.77;;
21183;SDS011;18176;49.502;11.754;2023-05-10T21:29:00;4.03;;;3.60;;
21183;SDS011;18176;49.502;11.754;2023-05-10T21:33:00;5.23;;;4.03;;
21183;SDS011;18176;49.502;11.754;2023-05-10T21:37:01;5.23;;;4.27;;
21183;SDS011;18176;49.502;11.754;2023-05-10T21:41:04;6.73;;;4.30;;
21183;SDS011;18176;49.502;11.754;2023-05-10T21:45:08;6.13;;;4.77;;
21183;SDS011;18176;49.502;11.754;2023-05-10T21:49:09;9.27;;;4.60;;
21183;SDS011;18176;49.502;11.754;2023-05-10T21:53:10;6.43;;;4.50;;
21183;SDS011;18176;49.502;11.754;2023-05-10T21:57:10;5.73;;;4.70;;
21183;SDS011;18176;49.502;11.754;2023-05-10T22:01:13;5.67;;;4.63;;
21183;SDS011;18176;49.502;11.754;2023-05-10T22:05:13;7.60;;;5.07;;
21183;SDS011;18176;49.502;11.754;2023-05-10T22:09:15;6.13;;;4.83;;
21183;SDS011;18176;49.502;11.754;2023-05-10T22:13:17;7.53;;;4.73;;
21183;SDS011;18176;49.502;11.754;2023-05-10T22:17:20;6.00;;;5.23;;
21183;SDS011;18176;49.502;11.754;2023-05-10T22:21:20;6.93;;;5.77;;
21183;SDS011;18176;49.502;11.754;2023-05-10T22:25:21;8.33;;;6.30;;
21183;SDS011;18176;49.502;11.754;2023-05-10T22:29:21;7.80;;;6.40;;
21183;SDS011;18176;49.502;11.754;2023-05-10T22:33:24;10.53;;;6.40;;
21183;SDS011;18176;49.502;11.754;2023-05-10T22:37:24;7.50;;;6.70;;
21183;SDS011;18176;49.502;11.754;2023-05-10T22:41:24;8.37;;;6.93;;
21183;SDS011;18176;49.502;11.754;2023-05-10T22:45:25;9.10;;;8.20;;
21183;SDS011;18176;49.502;11.754;2023-05-10T22:49:28;10.73;;;7.97;;
21183;SDS011;18176;49.502;11.754;2023-05-10T22:53:28;12.17;;;7.83;;
21183;SDS011;18176;49.502;11.754;2023-05-10T22:57:29;8.77;;;7.33;;
21183;SDS011;18176;49.502;11.754;2023-05-10T23:01:29;12.47;;;7.97;;
21183;SDS011;18176;49.502;11.754;2023-05-10T23:05:32;9.10;;;8.10;;
21183;SDS011;18176;49.502;11.754;2023-05-10T23:09:33;11.07;;;7.57;;
21183;SDS011;18176;49.502;11.754;2023-05-10T23:13:33;10.77;;;8.50;;
21183;SDS011;18176;49.502;11.754;2023-05-10T23:17:33;10.87;;;8.37;;
21183;SDS011;18176;49.502;11.754;2023-05-10T23:21:36;10.80;;;9.20;;
21183;SDS011;18176;49.502;11.754;2023-05-10T23:25:36;10.73;;;8.70;;
21183;SDS011;18176;49.502;11.754;2023-05-10T23:29:37;9.90;;;8.43;;
21183;SDS011;18176;49.502;11.754;2023-05-10T23:33:37;10.13;;;8.00;;
21183;SDS011;18176;49.502;11.754;2023-05-10T23:37:40;8.90;;;7.80;;
21183;SDS011;18176;49.502;11.754;2023-05-10T23:41:41;12.40;;;8.00;;
21183;SDS011;18176;49.502;11.754;2023-05-10T23:45:41;13.47;;;7.30;;
21183;SDS011;18176;49.502;11.754;2023-05-10T23:49:42;8.50;;;7.20;;
21183;SDS011;18176;49.502;11.754;2023-05-10T23:53:45;8.53;;;7.00;;
21183;SDS011;18176;49.502;11.754;2023-05-10T23:57:45;9.80;;;7.07;;
